createdAt,value
2018-08-13T00:01:10.518Z,4.40
2018-08-13T00:03:39.061Z,5.30
2018-08-13T00:06:07.683Z,3.10
2018-08-13T00:08:36.237Z,2.97
2018-08-13T00:11:04.921Z,3.73
2018-08-13T00:13:33.485Z,4.73
2018-08-13T00:16:03.227Z,4.80
2018-08-13T00:18:31.770Z,6.70
2018-08-13T00:21:26.536Z,3.00
2018-08-13T00:23:55.006Z,8.00
2018-08-13T00:26:23.543Z,11.80
2018-08-13T00:28:52.125Z,2.50
2018-08-13T00:31:20.590Z,6.87
2018-08-13T00:33:49.172Z,3.40
2018-08-13T00:36:57.353Z,5.00
2018-08-13T00:39:25.962Z,5.53
2018-08-13T00:41:54.492Z,2.87
2018-08-13T00:44:22.965Z,5.83
2018-08-13T00:46:51.517Z,7.37
2018-08-13T00:49:20.025Z,2.50
2018-08-13T00:51:48.641Z,4.03
2018-08-13T00:54:17.161Z,2.77
2018-08-13T00:56:45.688Z,4.83
2018-08-13T00:59:14.250Z,8.07
2018-08-13T01:01:42.722Z,6.67
2018-08-13T01:04:26.468Z,3.73
2018-08-13T01:06:55.064Z,4.40
2018-08-13T01:09:23.657Z,3.60
2018-08-13T01:11:52.223Z,4.73
2018-08-13T01:14:21.542Z,7.63
2018-08-13T01:16:50.128Z,8.03
2018-08-13T01:19:18.723Z,5.40
2018-08-13T01:21:47.307Z,3.97
2018-08-13T01:24:15.863Z,4.13
2018-08-13T01:26:44.522Z,3.43
2018-08-13T01:29:13.046Z,6.33
2018-08-13T01:31:41.731Z,4.70
2018-08-13T01:34:17.660Z,3.20
2018-08-13T01:36:46.261Z,6.93
2018-08-13T01:39:14.857Z,4.67
2018-08-13T01:41:43.406Z,6.27
2018-08-13T01:44:11.900Z,4.20
2018-08-13T01:46:40.697Z,3.97
2018-08-13T01:49:09.261Z,5.63
2018-08-13T01:51:37.740Z,5.73
2018-08-13T01:54:06.298Z,3.13
2018-08-13T01:57:25.361Z,5.00
2018-08-13T01:59:53.895Z,4.97
2018-08-13T02:02:22.475Z,7.03
2018-08-13T02:04:50.976Z,9.57
2018-08-13T02:07:19.539Z,5.97
2018-08-13T02:09:48.124Z,5.57
2018-08-13T02:12:16.750Z,5.10
2018-08-13T02:14:45.271Z,4.60
2018-08-13T02:17:13.766Z,10.23
2018-08-13T02:19:42.345Z,7.33
2018-08-13T02:22:10.833Z,5.93
2018-08-13T02:24:39.340Z,6.67
2018-08-13T02:27:07.839Z,7.30
2018-08-13T02:29:36.382Z,5.03
2018-08-13T02:32:05.100Z,13.53
2018-08-13T02:34:33.713Z,9.10
2018-08-13T02:37:02.172Z,5.43
2018-08-13T02:39:30.648Z,3.67
2018-08-13T02:41:59.243Z,4.60
2018-08-13T02:44:27.877Z,3.73
2018-08-13T02:46:56.484Z,5.97
2018-08-13T02:49:25.074Z,5.00
2018-08-13T02:51:53.646Z,7.07
2018-08-13T02:54:22.388Z,11.20
2018-08-13T02:56:50.925Z,10.10
2018-08-13T02:59:20.195Z,4.63
2018-08-13T03:01:51.134Z,10.60
2018-08-13T03:04:22.419Z,4.23
2018-08-13T03:06:53.732Z,7.73
2018-08-13T03:09:25.661Z,7.17
2018-08-13T03:11:57.965Z,6.63
2018-08-13T03:14:28.220Z,5.90
2018-08-13T03:16:59.651Z,7.43
2018-08-13T03:19:30.429Z,13.63
2018-08-13T03:22:01.264Z,8.63
2018-08-13T03:24:32.200Z,8.27
2018-08-13T03:27:02.957Z,14.60
2018-08-13T03:29:33.457Z,9.57
2018-08-13T03:32:04.449Z,6.63
2018-08-13T03:34:33.153Z,8.47
2018-08-13T03:37:03.471Z,12.07
2018-08-13T03:39:34.379Z,8.27
2018-08-13T03:42:05.653Z,9.30
2018-08-13T03:44:36.517Z,10.10
2018-08-13T03:47:07.499Z,14.53
2018-08-13T03:49:38.184Z,10.97
2018-08-13T03:52:10.201Z,9.80
2018-08-13T03:54:41.250Z,10.63
2018-08-13T03:57:12.446Z,8.87
2018-08-13T03:59:58.186Z,11.20
2018-08-13T04:02:56.702Z,7.67
2018-08-13T04:05:27.997Z,7.40
2018-08-13T04:07:58.508Z,11.63
2018-08-13T04:10:28.373Z,7.27
2018-08-13T04:12:58.784Z,9.03
2018-08-13T04:15:28.825Z,6.83
2018-08-13T04:17:59.292Z,9.03
2018-08-13T04:20:30.005Z,11.27
2018-08-13T04:23:00.298Z,11.13
2018-08-13T04:25:30.744Z,8.80
2018-08-13T04:28:01.471Z,8.00
2018-08-13T04:30:31.944Z,6.87
2018-08-13T04:33:03.047Z,8.03
2018-08-13T04:35:33.701Z,10.77
2018-08-13T04:38:04.005Z,10.80
2018-08-13T04:40:34.298Z,8.63
2018-08-13T04:43:05.032Z,9.80
2018-08-13T04:45:36.024Z,10.10
2018-08-13T04:48:19.479Z,7.77
2018-08-13T04:50:49.935Z,11.57
2018-08-13T04:53:21.055Z,8.43
2018-08-13T04:55:51.011Z,9.20
2018-08-13T04:58:21.460Z,9.37
2018-08-13T05:00:52.726Z,9.97
2018-08-13T05:03:23.280Z,11.83
2018-08-13T05:05:53.561Z,9.47
2018-08-13T05:08:23.821Z,10.13
2018-08-13T05:10:54.896Z,8.37
2018-08-13T05:13:25.602Z,7.27
2018-08-13T05:15:56.108Z,7.50
2018-08-13T05:18:26.084Z,9.30
2018-08-13T05:20:57.863Z,10.73
2018-08-13T05:23:37.413Z,8.60
2018-08-13T05:26:07.873Z,9.00
2018-08-13T05:28:38.217Z,8.63
2018-08-13T05:31:08.597Z,9.33
2018-08-13T05:33:37.181Z,12.20
2018-08-13T05:36:05.801Z,9.87
2018-08-13T05:38:50.658Z,13.93
2018-08-13T05:41:19.306Z,12.03
2018-08-13T05:43:47.933Z,15.77
2018-08-13T05:46:22.223Z,10.53
2018-08-13T05:49:06.099Z,13.57
2018-08-13T05:51:34.649Z,14.73
2018-08-13T05:54:03.117Z,14.30
2018-08-13T05:56:31.641Z,12.33
2018-08-13T05:59:00.207Z,11.93
2018-08-13T06:01:28.941Z,10.13
2018-08-13T06:03:57.661Z,16.47
2018-08-13T06:06:26.149Z,12.80
2018-08-13T06:08:54.750Z,11.27
2018-08-13T06:11:23.347Z,12.83
2018-08-13T06:13:51.825Z,12.63
2018-08-13T06:16:20.414Z,14.03
2018-08-13T06:18:48.985Z,12.57
2018-08-13T06:21:17.565Z,10.80
2018-08-13T06:23:46.152Z,9.60
2018-08-13T06:26:14.773Z,13.77
2018-08-13T06:28:43.305Z,13.73
2018-08-13T06:31:11.809Z,11.53
2018-08-13T06:33:40.363Z,8.90
2018-08-13T06:36:08.844Z,10.10
2018-08-13T06:38:37.370Z,10.30
2018-08-13T06:41:05.920Z,9.93
2018-08-13T06:43:34.424Z,11.80
2018-08-13T06:46:02.875Z,11.30
2018-08-13T06:48:31.415Z,10.77
2018-08-13T06:51:00.013Z,13.20
2018-08-13T06:53:28.521Z,9.13
2018-08-13T06:55:57.047Z,8.17
2018-08-13T06:58:25.588Z,10.47
2018-08-13T07:00:54.420Z,12.47
2018-08-13T07:03:22.837Z,12.77
2018-08-13T07:05:51.325Z,11.57
2018-08-13T07:08:19.862Z,11.70
2018-08-13T07:10:48.441Z,12.63
2018-08-13T07:13:16.996Z,10.83
2018-08-13T07:15:45.624Z,11.77
2018-08-13T07:18:14.153Z,10.23
2018-08-13T07:20:42.670Z,11.50
2018-08-13T07:23:11.236Z,8.27
2018-08-13T07:25:39.834Z,8.23
2018-08-13T07:28:08.798Z,7.83
2018-08-13T07:30:37.306Z,8.97
2018-08-13T07:33:05.777Z,8.10
2018-08-13T07:35:34.352Z,11.00
2018-08-13T07:38:02.978Z,9.73
2018-08-13T07:40:32.100Z,8.63
2018-08-13T07:43:00.588Z,7.67
2018-08-13T07:45:29.321Z,6.67
2018-08-13T07:47:57.757Z,9.97
2018-08-13T07:57:09.370Z,7.23
2018-08-13T07:59:37.875Z,6.53
2018-08-13T08:02:06.421Z,6.70
2018-08-13T08:05:02.960Z,6.87
2018-08-13T08:07:31.565Z,6.43
2018-08-13T08:10:00.141Z,6.27
2018-08-13T08:12:28.693Z,4.50
2018-08-13T08:14:57.327Z,5.57
2018-08-13T08:17:25.878Z,3.80
2018-08-13T08:19:54.434Z,3.80
2018-08-13T08:22:22.990Z,5.17
2018-08-13T08:24:52.075Z,5.97
2018-08-13T08:27:20.589Z,5.30
2018-08-13T08:29:49.096Z,4.50
2018-08-13T08:32:17.531Z,4.10
2018-08-13T08:34:46.208Z,12.60
2018-08-13T08:37:14.768Z,7.77
2018-08-13T08:39:43.356Z,8.53
2018-08-13T08:42:11.902Z,4.50
2018-08-13T08:44:40.376Z,8.40
2018-08-13T08:47:08.924Z,7.03
2018-08-13T08:49:37.470Z,30.07
2018-08-13T08:52:06.245Z,8.97
2018-08-13T08:54:34.742Z,6.57
2018-08-13T08:57:03.345Z,7.47
2018-08-13T08:59:31.996Z,24.83
2018-08-13T09:02:00.641Z,7.97
2018-08-13T09:04:29.180Z,6.80
2018-08-13T09:06:57.747Z,5.33
2018-08-13T09:09:26.349Z,6.73
2018-08-13T09:11:54.913Z,7.00
2018-08-13T09:14:23.385Z,7.80
2018-08-13T09:16:57.980Z,8.67
2018-08-13T09:19:37.718Z,7.33
2018-08-13T09:22:17.487Z,6.80
2018-08-13T09:24:57.398Z,7.67
2018-08-13T09:27:37.242Z,7.37
2018-08-13T09:30:26.225Z,6.57
2018-08-13T09:33:06.726Z,8.03
2018-08-13T09:35:35.735Z,7.40
2018-08-13T09:38:04.401Z,7.30
2018-08-13T09:40:33.741Z,6.40
2018-08-13T09:43:02.330Z,6.67
2018-08-13T09:45:30.968Z,7.43
2018-08-13T09:47:59.477Z,7.43
2018-08-13T09:50:28.112Z,5.23
2018-08-13T09:52:56.660Z,8.10
2018-08-13T09:55:29.944Z,5.40
2018-08-13T09:57:58.408Z,7.93
2018-08-13T10:00:32.277Z,5.90
2018-08-13T10:03:00.784Z,6.13
2018-08-13T10:05:29.292Z,7.20
2018-08-13T10:07:57.858Z,5.10
2018-08-13T10:10:26.431Z,6.83
2018-08-13T10:12:54.965Z,6.70
2018-08-13T10:15:23.457Z,6.03
2018-08-13T10:17:52.041Z,12.13
2018-08-13T10:20:21.690Z,6.23
2018-08-13T10:22:50.316Z,7.23
2018-08-13T10:25:18.854Z,4.83
2018-08-13T10:27:47.372Z,8.83
2018-08-13T10:30:16.853Z,8.10
2018-08-13T10:32:45.734Z,5.00
2018-08-13T10:35:14.268Z,14.47
2018-08-13T10:37:43.333Z,7.40
2018-08-13T10:40:14.815Z,9.40
2018-08-13T10:42:43.361Z,13.60
2018-08-13T10:45:12.101Z,11.37
2018-08-13T10:47:40.597Z,7.13
2018-08-13T10:50:11.080Z,7.17
2018-08-13T10:52:53.012Z,5.20
2018-08-13T10:55:21.545Z,5.63
2018-08-13T10:57:50.007Z,8.47
2018-08-13T11:00:18.468Z,7.73
2018-08-13T11:02:47.149Z,5.93
2018-08-13T11:05:16.152Z,3.53
2018-08-13T11:07:44.833Z,7.50
2018-08-13T11:10:14.488Z,4.00
2018-08-13T11:12:43.212Z,5.73
2018-08-13T11:15:14.205Z,3.30
2018-08-13T11:17:43.081Z,4.23
2018-08-13T11:20:11.721Z,5.17
2018-08-13T11:22:41.394Z,3.60
2018-08-13T11:25:11.747Z,4.73
2018-08-13T11:27:40.337Z,6.50
2018-08-13T11:30:11.377Z,5.70
2018-08-13T11:32:39.968Z,4.83
2018-08-13T11:35:08.576Z,3.60
2018-08-13T11:37:37.496Z,10.80
2018-08-13T11:40:09.236Z,18.27
2018-08-13T11:42:37.958Z,6.90
2018-08-13T11:45:06.744Z,5.13
2018-08-13T11:47:35.730Z,7.40
2018-08-13T11:50:07.367Z,5.10
2018-08-13T11:52:35.866Z,5.63
2018-08-13T11:55:04.616Z,4.50
2018-08-13T11:57:33.594Z,6.83
2018-08-13T12:00:02.409Z,5.43
2018-08-13T12:02:31.005Z,5.27
2018-08-13T12:04:59.542Z,5.67
2018-08-13T12:07:28.090Z,6.53
2018-08-13T12:09:56.742Z,5.47
2018-08-13T12:12:25.304Z,14.23
2018-08-13T12:14:54.028Z,6.10
2018-08-13T12:17:22.547Z,4.03
2018-08-13T12:19:51.135Z,16.70
2018-08-13T12:22:19.723Z,11.17
2018-08-13T12:24:48.855Z,10.00
2018-08-13T12:27:49.257Z,18.73
2018-08-13T12:30:18.033Z,12.13
2018-08-13T12:32:46.808Z,8.30
2018-08-13T12:35:15.483Z,5.10
2018-08-13T12:37:44.025Z,3.73
2018-08-13T12:40:12.586Z,21.47
2018-08-13T12:42:41.186Z,10.77
2018-08-13T12:45:12.640Z,17.10
2018-08-13T12:47:41.515Z,21.93
2018-08-13T12:50:12.153Z,2.83
2018-08-13T12:52:40.930Z,3.03
2018-08-13T12:55:10.402Z,3.37
2018-08-13T12:57:39.029Z,3.43
2018-08-13T13:00:10.859Z,3.03
2018-08-13T13:02:39.852Z,3.17
2018-08-13T13:05:09.891Z,11.60
2018-08-13T13:07:38.869Z,9.77
2018-08-13T13:10:10.622Z,2.63
2018-08-13T13:12:40.735Z,3.53
2018-08-13T13:15:12.121Z,7.10
2018-08-13T13:17:40.945Z,8.10
2018-08-13T13:20:13.105Z,14.77
2018-08-13T13:22:48.212Z,5.23
2018-08-13T13:25:17.175Z,5.43
2018-08-13T13:27:45.845Z,12.87
2018-08-13T13:30:15.703Z,4.63
2018-08-13T13:32:59.001Z,5.57
2018-08-13T13:35:27.797Z,5.80
2018-08-13T13:37:56.451Z,4.30
2018-08-13T13:40:25.471Z,7.30
2018-08-13T13:42:54.236Z,9.60
2018-08-13T13:45:22.798Z,5.27
2018-08-13T13:47:51.339Z,6.00
2018-08-13T13:50:20.306Z,11.73
2018-08-13T13:52:48.933Z,5.63
2018-08-13T13:55:17.798Z,10.43
2018-08-13T13:57:46.415Z,5.17
2018-08-13T14:00:19.961Z,22.27
2018-08-13T14:02:49.898Z,12.40
2018-08-13T14:05:18.821Z,18.17
2018-08-13T14:07:47.621Z,11.07
2018-08-13T14:10:22.595Z,9.80
2018-08-13T14:12:54.374Z,6.47
2018-08-13T14:15:23.353Z,12.90
2018-08-13T14:17:52.568Z,10.30
2018-08-13T14:20:21.567Z,10.03
2018-08-13T14:22:50.202Z,11.23
2018-08-13T14:25:29.917Z,10.43
2018-08-13T14:27:58.542Z,8.13
2018-08-13T14:30:28.367Z,9.13
2018-08-13T14:32:57.020Z,10.00
2018-08-13T14:35:26.269Z,14.93
2018-08-13T14:37:54.807Z,15.17
2018-08-13T14:40:23.469Z,11.70
2018-08-13T14:42:52.057Z,11.37
2018-08-13T14:45:20.991Z,11.40
2018-08-13T14:47:51.029Z,12.13
2018-08-13T14:50:19.855Z,14.13
2018-08-13T14:52:49.364Z,10.73
2018-08-13T14:55:19.296Z,14.10
2018-08-13T14:57:47.984Z,11.93
2018-08-13T15:00:19.712Z,12.33
2018-08-13T15:02:48.882Z,11.60
2018-08-13T15:05:17.832Z,10.33
2018-08-13T15:07:47.918Z,11.80
2018-08-13T15:10:19.622Z,9.70
2018-08-13T15:12:48.588Z,11.20
2018-08-13T15:15:17.174Z,8.87
2018-08-13T15:17:45.968Z,11.33
2018-08-13T15:20:16.848Z,7.50
2018-08-13T15:22:45.685Z,13.60
2018-08-13T15:25:14.374Z,6.10
2018-08-13T15:27:43.190Z,7.70
2018-08-13T15:30:21.320Z,7.07
2018-08-13T15:32:50.878Z,8.47
2018-08-13T15:35:19.671Z,6.07
2018-08-13T15:37:48.816Z,6.17
2018-08-13T15:40:17.922Z,7.33
2018-08-13T15:42:47.018Z,9.53
2018-08-13T15:45:17.779Z,6.40
2018-08-13T15:47:47.094Z,7.07
2018-08-13T15:50:18.125Z,7.37
2018-08-13T15:52:47.418Z,5.30
2018-08-13T15:55:16.004Z,7.50
2018-08-13T15:57:45.273Z,6.30
2018-08-13T16:00:16.245Z,6.07
2018-08-13T16:02:45.211Z,7.10
2018-08-13T16:05:13.864Z,6.43
2018-08-13T16:07:45.505Z,7.13
2018-08-13T16:10:15.533Z,6.33
2018-08-13T16:12:44.354Z,5.80
2018-08-13T16:15:12.889Z,6.83
2018-08-13T16:17:42.037Z,9.37
2018-08-13T16:20:16.440Z,6.80
2018-08-13T16:22:44.720Z,6.60
2018-08-13T16:25:13.368Z,12.60
2018-08-13T16:27:43.830Z,9.07
2018-08-13T16:30:44.565Z,14.37
2018-08-13T16:33:13.070Z,8.70
2018-08-13T16:35:42.030Z,7.53
2018-08-13T16:38:11.008Z,8.57
2018-08-13T16:40:39.564Z,10.73
2018-08-13T16:43:14.834Z,11.47
2018-08-13T16:45:44.056Z,10.40
2018-08-13T16:48:13.348Z,6.77
2018-08-13T16:50:42.049Z,5.97
2018-08-13T16:53:10.687Z,7.67
2018-08-13T16:55:39.296Z,5.87
2018-08-13T16:58:08.120Z,6.20
2018-08-13T17:00:41.106Z,5.33
2018-08-13T17:03:09.694Z,6.90
2018-08-13T17:05:39.238Z,7.33
2018-08-13T17:08:08.294Z,7.83
2018-08-13T17:10:37.318Z,12.93
2018-08-13T17:13:06.573Z,6.13
2018-08-13T17:15:35.559Z,6.23
2018-08-13T17:18:05.265Z,5.33
2018-08-13T17:20:38.125Z,5.57
2018-08-13T17:23:06.813Z,10.23
2018-08-13T17:25:35.460Z,5.63
2018-08-13T17:28:04.056Z,6.87
2018-08-13T17:30:32.626Z,6.80
2018-08-13T17:33:02.804Z,5.33
2018-08-13T17:35:36.538Z,6.87
2018-08-13T17:38:41.640Z,4.00
2018-08-13T17:41:10.436Z,3.77
2018-08-13T17:43:39.446Z,1.77
2018-08-13T17:46:09.813Z,2.70
2018-08-13T17:48:39.038Z,2.43
2018-08-13T17:51:08.198Z,2.30
2018-08-13T17:53:37.347Z,2.27
2018-08-13T17:56:06.463Z,4.17
2018-08-13T17:58:34.967Z,5.93
2018-08-13T18:01:03.580Z,5.80
2018-08-13T18:03:32.579Z,6.67
2018-08-13T18:06:01.557Z,3.73
2018-08-13T18:08:30.185Z,4.10
2018-08-13T18:11:29.491Z,6.13
2018-08-13T18:13:58.554Z,4.53
2018-08-13T18:16:27.604Z,3.97
2018-08-13T18:18:56.314Z,5.73
2018-08-13T18:21:26.338Z,4.50
2018-08-13T18:23:55.199Z,6.30
2018-08-13T18:26:32.232Z,6.10
2018-08-13T18:29:01.136Z,5.27
2018-08-13T18:31:30.656Z,5.73
2018-08-13T18:33:59.204Z,6.93
2018-08-13T18:36:28.332Z,8.40
2018-08-13T18:38:56.897Z,6.63
2018-08-13T18:41:25.493Z,8.93
2018-08-13T18:43:54.020Z,9.53
2018-08-13T18:46:23.679Z,9.57
2018-08-13T18:48:52.736Z,9.30
2018-08-13T18:51:21.356Z,12.93
2018-08-13T18:53:50.105Z,10.90
2018-08-13T18:56:18.876Z,10.07
2018-08-13T18:58:47.904Z,12.67
2018-08-13T19:01:16.512Z,18.27
2018-08-13T19:03:45.191Z,10.10
2018-08-13T19:06:13.817Z,10.53
2018-08-13T19:08:42.454Z,12.00
2018-08-13T19:11:11.318Z,9.53
2018-08-13T19:13:39.979Z,8.80
2018-08-13T19:16:08.610Z,7.43
2018-08-13T19:18:37.234Z,9.87
2018-08-13T19:21:06.388Z,11.30
2018-08-13T19:23:35.586Z,8.80
2018-08-13T19:26:04.402Z,11.27
2018-08-13T19:28:33.344Z,8.53
2018-08-13T19:31:01.979Z,11.67
2018-08-13T19:33:30.562Z,11.27
2018-08-13T19:35:59.152Z,13.97
2018-08-13T19:38:27.684Z,10.47
2018-08-13T19:40:56.627Z,10.57
2018-08-13T19:43:25.324Z,9.20
2018-08-13T19:45:54.049Z,12.43
2018-08-13T19:48:22.978Z,15.90
2018-08-13T19:50:51.850Z,10.20
2018-08-13T19:53:20.468Z,10.40
2018-08-13T19:55:48.977Z,10.50
2018-08-13T19:58:17.843Z,9.10
2018-08-13T20:00:46.965Z,10.90
2018-08-13T20:03:16.051Z,8.33
2018-08-13T20:05:44.592Z,9.97
2018-08-13T20:08:14.541Z,8.73
2018-08-13T20:10:43.084Z,9.70
2018-08-13T20:13:12.045Z,10.43
2018-08-13T20:15:40.673Z,8.80
2018-08-13T20:18:09.513Z,12.17
2018-08-13T20:20:38.612Z,9.43
2018-08-13T20:23:07.493Z,10.90
2018-08-13T20:25:36.077Z,10.30
2018-08-13T20:28:04.831Z,9.80
2018-08-13T20:30:33.615Z,11.73
2018-08-13T20:33:02.382Z,16.13
2018-08-13T20:35:30.985Z,9.87
2018-08-13T20:38:00.020Z,10.57
2018-08-13T20:40:29.031Z,10.57
2018-08-13T20:42:57.681Z,13.30
2018-08-13T20:45:27.013Z,13.80
2018-08-13T20:47:55.547Z,15.53
2018-08-13T20:50:25.075Z,11.73
2018-08-13T20:52:54.768Z,13.20
2018-08-13T20:55:25.114Z,10.60
2018-08-13T20:57:53.714Z,14.50
2018-08-13T21:00:24.101Z,13.97
2018-08-13T21:02:52.644Z,11.27
2018-08-13T21:05:21.257Z,10.27
2018-08-13T21:07:50.577Z,13.93
2018-08-13T21:10:20.571Z,10.67
2018-08-13T21:12:49.550Z,10.13
2018-08-13T21:15:18.363Z,13.23
2018-08-13T21:17:47.337Z,10.13
2018-08-13T21:20:26.482Z,9.43
2018-08-13T21:22:55.257Z,12.00
2018-08-13T21:25:24.238Z,10.83
2018-08-13T21:27:52.751Z,15.73
2018-08-13T21:30:21.338Z,12.13
2018-08-13T21:32:50.054Z,12.83
2018-08-13T21:35:21.775Z,10.90
2018-08-13T21:37:50.619Z,18.43
2018-08-13T21:40:19.316Z,13.30
2018-08-13T21:42:48.749Z,11.27
2018-08-13T21:45:17.396Z,13.57
2018-08-13T21:47:46.063Z,12.67
2018-08-13T21:50:17.152Z,13.20
2018-08-13T21:52:46.464Z,13.30
2018-08-13T21:55:15.177Z,9.83
2018-08-13T21:57:43.885Z,12.47
2018-08-13T22:00:49.900Z,13.90
2018-08-13T22:03:18.524Z,10.43
2018-08-13T22:05:47.089Z,13.83
2018-08-13T22:08:15.708Z,11.70
2018-08-13T22:10:44.299Z,16.67
2018-08-13T22:13:12.848Z,13.60
2018-08-13T22:15:41.560Z,16.97
2018-08-13T22:18:14.241Z,11.13
2018-08-13T22:20:42.847Z,12.20
2018-08-13T22:23:11.515Z,15.83
2018-08-13T22:25:42.733Z,14.93
2018-08-13T22:28:12.266Z,13.10
2018-08-13T22:30:40.843Z,14.63
2018-08-13T22:33:10.509Z,17.67
2018-08-13T22:35:39.170Z,16.17
2018-08-13T22:38:08.389Z,19.27
2018-08-13T22:40:37.553Z,19.63
2018-08-13T22:43:06.915Z,17.93
2018-08-13T22:45:35.556Z,18.93
2018-08-13T22:48:04.197Z,17.10
2018-08-13T22:50:32.776Z,17.97
2018-08-13T22:53:01.527Z,16.50
2018-08-13T22:55:30.451Z,17.90
2018-08-13T22:57:59.089Z,17.53
2018-08-13T23:00:27.631Z,22.67
2018-08-13T23:02:56.174Z,22.73
2018-08-13T23:05:26.695Z,22.53
2018-08-13T23:07:55.309Z,20.07
2018-08-13T23:10:24.889Z,24.17
2018-08-13T23:12:54.860Z,25.10
2018-08-13T23:15:23.648Z,20.97
2018-08-13T23:17:53.038Z,20.73
2018-08-13T23:20:24.368Z,21.70
2018-08-13T23:22:59.214Z,21.87
2018-08-13T23:25:28.483Z,23.73
2018-08-13T23:27:58.090Z,24.30
2018-08-13T23:30:26.778Z,20.50
2018-08-13T23:32:56.184Z,20.60
2018-08-13T23:35:25.597Z,21.73
2018-08-13T23:37:54.482Z,22.00
2018-08-13T23:40:23.512Z,23.43
2018-08-13T23:42:52.191Z,21.03
2018-08-13T23:45:23.304Z,22.73
2018-08-13T23:47:51.791Z,20.73
2018-08-13T23:50:22.151Z,25.50
2018-08-13T23:52:52.166Z,20.83
2018-08-13T23:55:28.760Z,24.23
2018-08-13T23:57:57.588Z,23.30
